Time;durP1;ratioP1;P1;durP2;ratioP2;P2;SDS_P1;SDS_P2;PMS_P1;PMS_P2;Temp;Humidity;BMP_temperature;BMP_pressure;BME280_temperature;BME280_humidity;BME280_pressure;Samples;Min_cycle;Max_cycle;Signal;HPM_P1;HPM_P2
2021/12/06 06:28:39;;;;;;;;;;;;;;;2.87;88.28;96544.13;4250827;27;10355;-65
2021/12/06 06:30:41;;;;;;;;;;;;;;;2.92;87.78;96547.09;4231721;27;5783;-65
2021/12/06 06:32:44;;;;;;;;;;;;;;;2.99;87.62;96549.09;4242513;27;5645;-66
2021/12/06 06:34:46;;;;;;;;;;;;;;;2.88;87.70;96544.94;4242555;27;5646;-66
2021/12/06 06:36:48;;;;;;;;;;;;;;;2.82;88.10;96551.56;4247912;27;5649;-66
2021/12/06 06:38:50;;;;;;;;;;;;;;;3.03;87.82;96550.44;4260253;27;5628;-67
2021/12/06 06:40:52;;;;;;;;;;;;;;;3.18;86.90;96548.91;4258701;27;5643;-67
2021/12/06 06:42:54;;;;;;;;;;;;;;;3.15;86.97;96551.81;4248567;27;5789;-67
2021/12/06 06:44:56;;;;;;;;;;;;;;;3.17;86.99;96547.25;4246072;27;5650;-67
2021/12/06 06:46:57;;;;;;;;;;;;;;;3.18;87.07;96554.16;4248618;27;5711;-67
2021/12/06 06:48:59;;;;;;;;;;;;;;;3.22;86.90;96552.84;4250307;27;5649;-67
2021/12/06 06:51:01;;;;;;;;;;;;;;;3.15;87.10;96557.03;4248348;27;5672;-67
2021/12/06 06:53:04;;;;;;;;;;;;;;;3.11;87.57;96574.81;4249928;27;5642;-67
2021/12/06 06:55:07;;;;;;;;;;;;;;;3.02;87.15;96572.28;4250002;27;5772;-67
2021/12/06 06:57:09;;;;;;;;;;;;;;;2.91;86.60;96576.78;4249784;27;5654;-67
2021/12/06 06:59:11;;;;;;;;;;;;;;;2.83;86.34;96576.72;4231333;27;5681;-67
2021/12/06 07:01:13;;;;;;;;;;;;;;;2.83;86.37;96571.50;4249940;27;5758;-67
2021/12/06 07:03:15;;;;;;;;;;;;;;;2.83;85.89;96574.13;4248513;27;5704;-67
2021/12/06 07:05:17;;;;;;;;;;;;;;;2.78;85.68;96576.34;4249726;27;5681;-67
2021/12/06 07:07:19;;;;;;;;;;;;;;;2.71;85.92;96582.31;4249523;27;5650;-67
2021/12/06 07:09:20;;;;;;;;;;;;;;;2.74;85.82;96589.84;4249440;27;6321;-67
2021/12/06 07:11:24;;;;;;;;;;;;;;;2.77;85.73;96590.38;4248003;27;5928;-67
2021/12/06 07:13:27;;;;;;;;;;;;;;;2.71;85.72;96598.78;4249384;27;5657;-67
2021/12/06 07:15:32;;;;;;;;;;;;;;;2.73;85.72;96594.25;4248338;27;6140;-68
2021/12/06 07:17:34;;;;;;;;;;;;;;;2.77;85.92;96605.22;4249953;27;5650;-68
2021/12/06 07:19:36;;;;;;;;;;;;;;;2.82;85.79;96610.78;4248356;27;5778;-68
2021/12/06 07:21:38;;;;;;;;;;;;;;;2.82;84.93;96611.63;4248194;27;5669;-68
2021/12/06 07:23:42;;;;;;;;;;;;;;;2.78;85.11;96609.47;4248372;27;5773;-68
2021/12/06 07:25:43;;;;;;;;;;;;;;;2.76;84.72;96614.03;4230896;28;5741;-67
2021/12/06 07:27:46;;;;;;;;;;;;;;;2.74;84.31;96613.34;4247891;27;5745;-67
2021/12/06 07:29:47;;;;;;;;;;;;;;;2.72;84.53;96615.25;4238037;27;5646;-67
2021/12/06 07:31:50;;;;;;;;;;;;;;;2.67;84.57;96618.34;4238216;27;5641;-67
2021/12/06 07:33:52;;;;;;;;;;;;;;;2.70;84.55;96618.03;4237871;27;5646;-67
2021/12/06 07:35:54;;;;;;;;;;;;;;;2.69;84.43;96628.63;4236664;28;5649;-67
2021/12/06 07:37:57;;;;;;;;;;;;;;;2.70;84.22;96636.31;4238121;27;5642;-67
2021/12/06 07:39:58;;;;;;;;;;;;;;;2.69;84.10;96634.66;4236296;28;5657;-67
2021/12/06 07:42:00;;;;;;;;;;;;;;;2.71;84.12;96632.72;4237587;28;5654;-67
2021/12/06 07:44:03;;;;;;;;;;;;;;;2.76;83.95;96643.56;4219796;28;5679;-67
2021/12/06 07:46:06;;;;;;;;;;;;;;;2.71;84.27;96637.94;4236603;28;5712;-67
2021/12/06 07:48:08;;;;;;;;;;;;;;;2.77;83.83;96641.75;4237897;27;5650;-67
2021/12/06 07:50:13;;;;;;;;;;;;;;;2.81;83.77;96649.13;4219895;28;5674;-67
2021/12/06 07:52:20;;;;;;;;;;;;;;;2.84;83.50;96653.25;4237829;27;5642;-67
2021/12/06 07:54:22;;;;;;;;;;;;;;;2.84;83.95;96654.09;4237898;27;5654;-67
2021/12/06 07:56:25;;;;;;;;;;;;;;;2.91;83.54;96660.34;4237623;28;5630;-67
2021/12/06 07:58:27;;;;;;;;;;;;;;;2.90;83.48;96657.88;4236415;28;5633;-67
2021/12/06 08:00:30;;;;;;;;;;;;;;;2.92;83.42;96661.16;4238043;27;6337;-67
2021/12/06 08:02:31;;;;;;;;;;;;;;;2.90;83.41;96660.50;4236122;28;5662;-67
2021/12/06 08:04:34;;;;;;;;;;;;;;;2.91;83.32;96662.94;4236166;28;5641;-67
2021/12/06 08:06:37;;;;;;;;;;;;;;;2.90;83.23;96658.69;4237299;27;5694;-67
2021/12/06 08:08:40;;;;;;;;;;;;;;;2.84;83.29;96669.75;4237709;27;5670;-67
2021/12/06 08:10:47;;;;;;;;;;;;;;;2.80;83.41;96668.38;4235990;28;5757;-67
2021/12/06 08:12:49;;;;;;;;;;;;;;;2.75;83.92;96672.41;4236029;28;5768;-67
2021/12/06 08:14:51;;;;;;;;;;;;;;;2.74;83.84;96679.44;4237600;27;5646;-67
2021/12/06 08:16:56;;;;;;;;;;;;;;;2.73;83.99;96676.97;4236054;28;5803;-67
2021/12/06 08:18:59;;;;;;;;;;;;;;;2.76;84.18;96676.66;4237318;28;6370;-67
2021/12/06 08:21:02;;;;;;;;;;;;;;;2.80;84.23;96678.81;4237004;27;5649;-66
2021/12/06 08:23:05;;;;;;;;;;;;;;;2.81;84.12;96680.47;4235946;28;5649;-67
2021/12/06 08:25:08;;;;;;;;;;;;;;;2.86;83.93;96669.59;4236582;28;5661;-67
2021/12/06 08:27:10;;;;;;;;;;;;;;;2.91;83.90;96676.00;4236911;28;5626;-67
2021/12/06 08:29:15;;;;;;;;;;;;;;;2.96;83.99;96675.56;4237257;28;5682;-67
2021/12/06 08:31:22;;;;;;;;;;;;;;;3.00;83.93;96673.47;4237039;28;5641;-67
2021/12/06 08:33:24;;;;;;;;;;;;;;;2.91;83.67;96689.06;4232616;27;5816;-67
2021/12/06 08:35:27;;;;;;;;;;;;;;;3.03;83.46;96683.63;4218822;28;6386;-67
2021/12/06 08:37:29;;;;;;;;;;;;;;;3.13;83.10;96685.19;4228277;27;5833;-67
2021/12/06 08:39:31;;;;;;;;;;;;;;;3.22;83.06;96693.94;4239671;27;5835;-67
2021/12/06 08:41:33;;;;;;;;;;;;;;;3.26;82.85;96690.03;4225112;27;7045;-67
2021/12/06 08:43:35;;;;;;;;;;;;;;;3.21;82.96;96694.91;4220292;27;5773;-69
2021/12/06 08:45:37;;;;;;;;;;;;;;;3.21;82.89;96690.50;4240827;27;5781;-69
2021/12/06 08:47:41;;;;;;;;;;;;;;;3.26;83.01;96695.25;4221208;27;5654;-66
2021/12/06 08:49:44;;;;;;;;;;;;;;;3.34;83.10;96707.59;4225221;27;5683;-67
2021/12/06 08:51:49;;;;;;;;;;;;;;;3.36;82.96;96714.28;4221785;28;5708;-68
2021/12/06 08:53:52;;;;;;;;;;;;;;;3.32;82.67;96717.38;4233699;27;5769;-68
2021/12/06 08:55:53;;;;;;;;;;;;;;;3.30;82.74;96721.94;4236358;27;5653;-69
2021/12/06 08:57:55;;;;;;;;;;;;;;;3.27;82.58;96722.22;4222744;27;5777;-71
2021/12/06 08:59:57;;;;;;;;;;;;;;;3.21;82.72;96723.63;4223228;27;5674;-72
2021/12/06 09:01:58;;;;;;;;;;;;;;;3.16;82.69;96726.69;4233273;28;5826;-71
2021/12/06 09:04:22;;;;;;;;;;;;;;;3.26;82.94;96725.78;4229991;27;5646;-71
2021/12/06 09:06:24;;;;;;;;;;;;;;;3.26;82.70;96731.00;4219260;28;5667;-69
2021/12/06 09:08:25;;;;;;;;;;;;;;;3.22;82.79;96735.72;4227690;28;5708;-67
2021/12/06 09:10:28;;;;;;;;;;;;;;;3.31;83.06;96731.41;4224104;28;5691;-69
2021/12/06 09:12:29;;;;;;;;;;;;;;;3.30;83.11;96738.44;4219046;28;5762;-66
2021/12/06 09:14:31;;;;;;;;;;;;;;;3.32;82.17;96738.28;4219687;28;5787;-68
2021/12/06 09:16:36;;;;;;;;;;;;;;;3.34;82.12;96742.38;4219249;28;5796;-68
2021/12/06 09:18:40;;;;;;;;;;;;;;;3.35;82.28;96741.41;4225602;28;5657;-67
2021/12/06 09:20:43;;;;;;;;;;;;;;;3.36;82.57;96742.22;4220731;28;5698;-68
2021/12/06 09:22:47;;;;;;;;;;;;;;;3.40;82.64;96743.59;4217513;28;5678;-66
2021/12/06 09:24:49;;;;;;;;;;;;;;;3.44;82.46;96750.97;4226123;28;5654;-65
2021/12/06 09:26:51;;;;;;;;;;;;;;;3.48;82.69;96752.28;4234601;28;5649;-66
2021/12/06 09:28:53;;;;;;;;;;;;;;;3.48;82.57;96760.13;4225417;28;5679;-67
2021/12/06 09:30:55;;;;;;;;;;;;;;;3.46;82.16;96759.47;4218903;28;5675;-65
2021/12/06 09:32:58;;;;;;;;;;;;;;;3.39;82.06;96758.41;4225495;28;6080;-66
2021/12/06 09:35:04;;;;;;;;;;;;;;;3.38;82.36;96759.38;4218141;28;6561;-66
2021/12/06 09:37:07;;;;;;;;;;;;;;;3.42;82.58;96765.16;4227628;28;5789;-65
2021/12/06 09:39:09;;;;;;;;;;;;;;;3.50;82.59;96770.44;4221219;28;5818;-66
2021/12/06 09:41:22;;;;;;;;;;;;;;;3.47;82.47;96766.34;4232149;28;5678;-70
2021/12/06 09:43:24;;;;;;;;;;;;;;;3.51;82.43;96766.84;4219154;28;6343;-70
2021/12/06 09:45:30;;;;;;;;;;;;;;;3.56;82.45;96774.25;4219499;28;5689;-67
2021/12/06 09:47:33;;;;;;;;;;;;;;;3.58;82.25;96782.75;4227729;28;5681;-67
2021/12/06 09:49:35;;;;;;;;;;;;;;;3.64;82.42;96780.38;4231968;28;5654;-68
2021/12/06 09:51:39;;;;;;;;;;;;;;;3.67;82.31;96779.25;4235419;27;5661;-68
2021/12/06 09:53:44;;;;;;;;;;;;;;;3.66;81.96;96775.81;4233476;28;5635;-67
2021/12/06 09:55:49;;;;;;;;;;;;;;;3.69;82.02;96774.69;4217168;28;5687;-68
2021/12/06 09:57:51;;;;;;;;;;;;;;;3.65;81.66;96775.97;4225604;28;5786;-67
2021/12/06 09:59:53;;;;;;;;;;;;;;;3.63;81.58;96781.38;4218124;28;5675;-67
2021/12/06 10:02:02;;;;;;;;;;;;;;;3.61;82.19;96777.22;4219031;28;5687;-68
2021/12/06 10:04:09;;;;;;;;;;;;;;;3.62;82.10;96778.88;4217804;28;5700;-68
2021/12/06 10:06:11;;;;;;;;;;;;;;;3.61;82.13;96787.69;4225055;28;5666;-67
2021/12/06 10:08:14;;;;;;;;;;;;;;;3.59;81.92;96789.63;4235645;27;5736;-67
2021/12/06 10:10:15;;;;;;;;;;;;;;;3.60;82.00;96786.06;4221759;27;5788;-67
2021/12/06 10:12:19;;;;;;;;;;;;;;;3.58;81.84;96793.22;4232897;27;5860;-67
2021/12/06 10:14:22;;;;;;;;;;;;;;;3.56;82.26;96788.16;4217515;28;5804;-68
2021/12/06 10:16:24;;;;;;;;;;;;;;;3.60;82.11;96784.25;4222759;28;5698;-67
2021/12/06 10:18:26;;;;;;;;;;;;;;;3.65;82.01;96783.81;4217617;28;5679;-67
2021/12/06 10:20:30;;;;;;;;;;;;;;;3.66;81.80;96782.84;4219196;28;5687;-68
2021/12/06 10:22:31;;;;;;;;;;;;;;;3.60;82.25;96778.22;4232599;28;5876;-68
2021/12/06 10:24:33;;;;;;;;;;;;;;;3.70;81.87;96784.19;4234525;27;7063;-68
2021/12/06 10:26:35;;;;;;;;;;;;;;;3.68;81.70;96778.28;4230988;27;5705;-67
2021/12/06 10:28:39;;;;;;;;;;;;;;;3.67;81.21;96780.09;4231972;28;5841;-67
2021/12/06 10:30:46;;;;;;;;;;;;;;;3.69;81.23;96785.97;4218485;28;5671;-67
2021/12/06 10:32:48;;;;;;;;;;;;;;;3.63;80.82;96783.16;4231192;28;5646;-68
2021/12/06 10:34:56;;;;;;;;;;;;;;;3.56;80.83;96787.34;4217111;28;5679;-68
2021/12/06 10:36:58;;;;;;;;;;;;;;;3.51;80.94;96777.31;4228824;28;5682;-68
2021/12/06 10:39:05;;;;;;;;;;;;;;;3.47;81.44;96782.00;4224611;28;5775;-68
2021/12/06 10:41:10;;;;;;;;;;;;;;;3.52;81.64;96780.78;4233213;27;5864;-67
2021/12/06 10:43:13;;;;;;;;;;;;;;;3.57;81.54;96781.13;4218635;28;5671;-68
2021/12/06 10:45:23;;;;;;;;;;;;;;;3.62;80.85;96778.88;4232278;28;5712;-68
2021/12/06 10:47:25;;;;;;;;;;;;;;;3.66;81.25;96777.63;4234471;27;5746;-67
2021/12/06 10:49:27;;;;;;;;;;;;;;;3.70;81.04;96781.56;4224471;28;5932;-68
2021/12/06 10:51:29;;;;;;;;;;;;;;;3.66;80.55;96788.91;4230889;27;5789;-67
2021/12/06 10:53:39;;;;;;;;;;;;;;;3.53;80.75;96790.25;4226105;27;5804;-67
2021/12/06 10:55:43;;;;;;;;;;;;;;;3.49;80.75;96785.31;4220278;27;5794;-67
2021/12/06 10:57:50;;;;;;;;;;;;;;;3.55;81.04;96796.16;4227138;28;5669;-67
2021/12/06 10:59:52;;;;;;;;;;;;;;;3.65;80.91;96800.31;4230879;28;5750;-66
2021/12/06 11:02:09;;;;;;;;;;;;;;;3.75;80.73;96806.31;4225456;28;5768;-66
2021/12/06 11:04:14;;;;;;;;;;;;;;;3.73;80.51;96804.78;4227104;28;5909;-67
2021/12/06 11:06:24;;;;;;;;;;;;;;;3.66;80.34;96806.38;4222844;28;5789;-67
2021/12/06 11:08:27;;;;;;;;;;;;;;;3.67;80.34;96811.44;4235125;27;5741;-67
2021/12/06 11:10:29;;;;;;;;;;;;;;;3.66;80.23;96814.22;4216464;28;5926;-66
2021/12/06 11:12:34;;;;;;;;;;;;;;;3.68;80.49;96820.13;4230203;28;5225;-68
2021/12/06 11:14:41;;;;;;;;;;;;;;;3.75;80.15;96823.78;4232682;27;7320;-67
2021/12/06 11:16:45;;;;;;;;;;;;;;;3.72;79.93;96822.28;4230146;28;5772;-67
2021/12/06 11:18:51;;;;;;;;;;;;;;;3.81;79.77;96828.41;4220821;28;5769;-67
2021/12/06 11:20:53;;;;;;;;;;;;;;;3.82;79.98;96824.00;4204792;28;5811;-69
2021/12/06 11:23:05;;;;;;;;;;;;;;;3.86;79.94;96834.03;4224462;27;5875;-68
2021/12/06 11:25:09;;;;;;;;;;;;;;;3.94;79.99;96830.63;4216538;28;5813;-69
2021/12/06 11:27:20;;;;;;;;;;;;;;;3.89;79.40;96828.47;4216333;28;5781;-69
2021/12/06 11:29:24;;;;;;;;;;;;;;;3.87;80.13;96821.75;4228016;28;5765;-68
2021/12/06 11:31:25;;;;;;;;;;;;;;;4.03;79.82;96819.28;4226322;27;5756;-68
2021/12/06 11:33:30;;;;;;;;;;;;;;;3.89;79.04;96812.78;4234826;27;5744;-68
2021/12/06 11:35:33;;;;;;;;;;;;;;;3.96;79.67;96813.81;4226838;27;6471;-69
2021/12/06 11:37:43;;;;;;;;;;;;;;;3.63;78.90;96809.31;4225391;28;5753;-68
2021/12/06 11:39:48;;;;;;;;;;;;;;;3.20;80.16;96806.41;4234033;28;6432;-68
2021/12/06 11:41:56;;;;;;;;;;;;;;;3.29;80.35;96809.94;4227303;27;5243;-68
2021/12/06 11:44:11;;;;;;;;;;;;;;;3.45;79.69;96811.88;4215827;28;5848;-68
2021/12/06 11:46:26;;;;;;;;;;;;;;;3.65;81.63;96812.59;4230831;28;5081;-68
2021/12/06 11:48:35;;;;;;;;;;;;;;;3.73;81.34;96810.00;4233134;28;7691;-68
2021/12/06 11:50:50;;;;;;;;;;;;;;;3.76;81.31;96807.13;4220921;27;5766;-68
2021/12/06 11:52:51;;;;;;;;;;;;;;;3.80;81.23;96811.88;4225794;28;5740;-67
2021/12/06 11:55:04;;;;;;;;;;;;;;;3.79;81.84;96812.03;4233073;27;5646;-67
2021/12/06 11:57:11;;;;;;;;;;;;;;;3.75;81.26;96813.34;4225617;28;5653;-67
2021/12/06 11:59:15;;;;;;;;;;;;;;;3.73;80.61;96812.63;4235547;27;5641;-67
2021/12/06 12:01:29;;;;;;;;;;;;;;;3.66;80.04;96809.00;4237254;27;5670;-68
2021/12/06 12:03:32;;;;;;;;;;;;;;;3.48;81.02;96808.97;4237360;27;6325;-67
2021/12/06 12:05:37;;;;;;;;;;;;;;;3.59;81.14;96800.09;4236084;28;5865;-68
2021/12/06 12:07:57;;;;;;;;;;;;;;;3.61;80.93;96803.38;4237370;27;5712;-68
2021/12/06 12:10:03;;;;;;;;;;;;;;;3.50;81.29;96793.97;4237323;27;5653;-68
2021/12/06 12:12:06;;;;;;;;;;;;;;;3.53;80.93;96792.88;4232282;28;5910;-67
2021/12/06 12:14:11;;;;;;;;;;;;;;;3.38;81.41;96793.34;4222455;28;6410;-67
2021/12/06 12:16:13;;;;;;;;;;;;;;;3.32;82.25;96793.16;4218988;28;5678;-68
2021/12/06 12:18:15;;;;;;;;;;;;;;;3.23;82.08;96794.84;4220196;28;5675;-67
2021/12/06 12:20:26;;;;;;;;;;;;;;;3.28;81.22;96794.38;4219760;28;5750;-67
2021/12/06 12:22:28;;;;;;;;;;;;;;;3.12;82.13;96795.88;4234553;28;5847;-67
2021/12/06 12:24:31;;;;;;;;;;;;;;;3.01;82.38;96803.09;4236612;27;5646;-67
2021/12/06 12:26:34;;;;;;;;;;;;;;;2.93;81.65;96807.22;4224463;27;5678;-67
2021/12/06 12:28:49;;;;;;;;;;;;;;;2.76;81.70;96805.41;4222830;28;5783;-67
2021/12/06 12:30:55;;;;;;;;;;;;;;;2.98;81.77;96811.22;4231859;28;5080;-68
2021/12/06 12:32:57;;;;;;;;;;;;;;;2.85;81.50;96801.13;4236730;27;7648;-67
2021/12/06 12:35:05;;;;;;;;;;;;;;;2.86;81.46;96806.19;4236299;27;6332;-67
2021/12/06 12:37:10;;;;;;;;;;;;;;;2.81;81.80;96808.41;4220968;28;5755;-67
2021/12/06 12:39:17;;;;;;;;;;;;;;;2.90;81.89;96794.47;4236853;27;5672;-68
2021/12/06 12:41:19;;;;;;;;;;;;;;;2.81;81.64;96795.34;4226104;27;5695;-67
2021/12/06 12:43:31;;;;;;;;;;;;;;;2.67;81.53;96792.41;4222988;28;5756;-68
2021/12/06 12:45:41;;;;;;;;;;;;;;;2.86;82.26;96795.75;4236516;27;5658;-68
2021/12/06 12:47:43;;;;;;;;;;;;;;;2.92;80.93;96795.16;4223740;27;5659;-67
2021/12/06 12:49:51;;;;;;;;;;;;;;;2.84;81.10;96800.28;4227459;28;5653;-67
2021/12/06 12:51:57;;;;;;;;;;;;;;;2.91;80.74;96796.13;4219414;28;5687;-67
2021/12/06 12:54:14;;;;;;;;;;;;;;;2.69;81.31;96787.84;4231559;28;5705;-67
2021/12/06 12:56:23;;;;;;;;;;;;;;;2.78;80.67;96785.19;4232591;28;5871;-67
2021/12/06 12:58:26;;;;;;;;;;;;;;;3.04;79.85;96785.31;4228375;27;5998;-67
2021/12/06 13:00:29;;;;;;;;;;;;;;;3.21;79.35;96781.13;4240829;27;5855;-67
2021/12/06 13:02:34;;;;;;;;;;;;;;;3.44;79.12;96776.28;4220937;28;5795;-67
2021/12/06 13:04:57;;;;;;;;;;;;;;;3.54;77.32;96787.47;4234232;27;5654;-68
2021/12/06 13:07:14;;;;;;;;;;;;;;;3.48;77.21;96778.44;4231766;27;5613;-67
2021/12/06 13:09:19;;;;;;;;;;;;;;;3.56;77.72;96782.09;4214667;28;5663;-67
2021/12/06 13:11:24;;;;;;;;;;;;;;;3.67;77.45;96776.66;4225132;28;5695;-68
2021/12/06 13:13:34;;;;;;;;;;;;;;;3.72;76.72;96779.63;4219415;28;5824;-67
2021/12/06 13:16:04;;;;;;;;;;;;;;;3.90;76.18;96774.38;4219449;28;5679;-68
2021/12/06 13:18:29;;;;;;;;;;;;;;;3.88;74.19;96778.94;4219022;28;5780;-67
2021/12/06 13:20:37;;;;;;;;;;;;;;;3.95;74.02;96774.72;4218805;28;5675;-67
2021/12/06 13:22:47;;;;;;;;;;;;;;;3.91;73.05;96784.69;4230258;28;5079;-67
2021/12/06 13:24:51;;;;;;;;;;;;;;;3.94;73.10;96775.72;4217343;28;7796;-67
2021/12/06 13:26:56;;;;;;;;;;;;;;;4.09;72.26;96776.81;4221146;28;5664;-68
2021/12/06 13:29:06;;;;;;;;;;;;;;;4.12;73.83;96766.03;4224506;28;5734;-67
2021/12/06 13:31:08;;;;;;;;;;;;;;;4.22;73.71;96756.28;4230732;27;5738;-66
2021/12/06 13:33:12;;;;;;;;;;;;;;;4.23;73.16;96757.13;4218888;28;5793;-67
2021/12/06 13:35:44;;;;;;;;;;;;;;;4.31;74.06;96758.00;4225024;28;5799;-67
2021/12/06 13:38:04;;;;;;;;;;;;;;;4.38;73.93;96750.31;4218946;28;5687;-67
2021/12/06 13:40:17;;;;;;;;;;;;;;;4.22;73.19;96751.06;4230767;28;6357;-67
2021/12/06 13:42:43;;;;;;;;;;;;;;;4.19;72.83;96754.00;4218969;28;5057;-67
2021/12/06 13:44:51;;;;;;;;;;;;;;;4.19;72.97;96755.75;4220150;28;5789;-67
2021/12/06 13:46:53;;;;;;;;;;;;;;;4.12;73.88;96759.97;4201660;28;5709;-68
2021/12/06 13:48:59;;;;;;;;;;;;;;;4.13;74.17;96764.25;4229307;28;5658;-68
2021/12/06 13:51:27;;;;;;;;;;;;;;;4.19;75.06;96768.84;4234012;28;5679;-67
2021/12/06 13:53:34;;;;;;;;;;;;;;;4.26;74.63;96767.25;4227884;27;5714;-68
2021/12/06 13:55:40;;;;;;;;;;;;;;;4.35;74.35;96761.94;4235257;28;5662;-68
2021/12/06 13:57:44;;;;;;;;;;;;;;;4.26;74.19;96767.25;4235470;28;5744;-69
2021/12/06 13:59:55;;;;;;;;;;;;;;;4.30;73.45;96773.81;4234167;28;5753;-69
2021/12/06 14:02:03;;;;;;;;;;;;;;;4.21;73.76;96782.63;4227588;28;5666;-69
2021/12/06 14:04:08;;;;;;;;;;;;;;;4.26;74.29;96788.19;4226929;28;5665;-68
2021/12/06 14:06:12;;;;;;;;;;;;;;;4.21;74.13;96785.22;4235622;28;5669;-67
2021/12/06 14:08:22;;;;;;;;;;;;;;;4.12;74.04;96788.75;4236357;28;5646;-68
2021/12/06 14:10:25;;;;;;;;;;;;;;;4.08;74.34;96786.47;4217343;28;5793;-67
2021/12/06 14:12:32;;;;;;;;;;;;;;;4.06;74.40;96798.84;4231972;28;5696;-68
2021/12/06 14:14:37;;;;;;;;;;;;;;;4.09;74.55;96795.94;4235785;27;5674;-66
2021/12/06 14:16:42;;;;;;;;;;;;;;;4.25;74.25;96791.78;4235812;28;6305;-66
2021/12/06 14:18:44;;;;;;;;;;;;;;;4.07;75.08;96784.78;4234701;27;5649;-66
2021/12/06 14:20:51;;;;;;;;;;;;;;;3.92;74.16;96785.50;4232014;28;5685;-67
2021/12/06 14:22:54;;;;;;;;;;;;;;;4.08;75.10;96785.63;4221137;28;5946;-67
2021/12/06 14:24:59;;;;;;;;;;;;;;;3.97;74.91;96778.03;4225073;27;5690;-67
2021/12/06 14:27:02;;;;;;;;;;;;;;;3.91;75.17;96789.91;4225778;28;5788;-67
2021/12/06 14:29:03;;;;;;;;;;;;;;;4.02;74.92;96787.06;4229539;27;5778;-67
2021/12/06 14:31:06;;;;;;;;;;;;;;;4.27;74.63;96787.22;4225217;28;5798;-66
2021/12/06 14:33:09;;;;;;;;;;;;;;;4.33;74.54;96782.22;4230014;28;5729;-67
2021/12/06 14:35:10;;;;;;;;;;;;;;;4.36;74.12;96778.44;4236605;28;5657;-66
2021/12/06 14:37:15;;;;;;;;;;;;;;;4.19;74.50;96787.16;4223601;28;5797;-67
2021/12/06 14:39:24;;;;;;;;;;;;;;;4.26;74.36;96780.34;4220303;28;5687;-68
2021/12/06 14:41:25;;;;;;;;;;;;;;;4.09;73.23;96777.63;4221654;28;5706;-67
2021/12/06 14:43:27;;;;;;;;;;;;;;;4.19;74.34;96792.38;4234507;27;5660;-67
2021/12/06 14:45:30;;;;;;;;;;;;;;;4.18;72.86;96801.22;4236449;27;5670;-67
2021/12/06 14:47:59;;;;;;;;;;;;;;;4.20;74.27;96815.00;4230965;28;5915;-67
2021/12/06 14:50:06;;;;;;;;;;;;;;;4.34;73.74;96822.28;4233000;28;5651;-68
2021/12/06 14:52:20;;;;;;;;;;;;;;;4.38;73.44;96819.19;4229109;28;5766;-68
2021/12/06 14:54:27;;;;;;;;;;;;;;;4.21;72.55;96811.41;4233024;28;5649;-68
2021/12/06 14:56:47;;;;;;;;;;;;;;;4.23;72.45;96807.66;4238424;27;5710;-68
2021/12/06 14:58:50;;;;;;;;;;;;;;;4.18;73.13;96811.69;4224531;27;5727;-68
2021/12/06 15:00:57;;;;;;;;;;;;;;;4.06;72.73;96819.78;4225530;28;5784;-68
2021/12/06 15:02:59;;;;;;;;;;;;;;;4.06;72.70;96813.72;4238842;28;5737;-68
2021/12/06 15:05:03;;;;;;;;;;;;;;;3.99;73.55;96817.94;4237805;28;5752;-68
2021/12/06 15:07:12;;;;;;;;;;;;;;;4.02;73.11;96817.63;4238002;27;5784;-66
2021/12/06 15:09:18;;;;;;;;;;;;;;;4.26;72.96;96809.13;4235529;27;5646;-67
2021/12/06 15:11:30;;;;;;;;;;;;;;;4.24;72.96;96805.84;4222594;28;5675;-68
2021/12/06 15:13:33;;;;;;;;;;;;;;;4.38;72.51;96805.28;4221562;28;5824;-67
2021/12/06 15:15:39;;;;;;;;;;;;;;;4.45;73.15;96802.88;4221748;28;5152;-68
2021/12/06 15:17:42;;;;;;;;;;;;;;;4.29;72.43;96808.81;4228581;28;7408;-67
2021/12/06 15:19:43;;;;;;;;;;;;;;;4.29;72.70;96808.81;4232201;27;5709;-68
2021/12/06 15:21:50;;;;;;;;;;;;;;;4.42;73.38;96811.03;4222579;28;5671;-68
2021/12/06 15:24:02;;;;;;;;;;;;;;;4.48;72.70;96816.47;4223582;28;5748;-67
2021/12/06 15:26:11;;;;;;;;;;;;;;;4.50;73.08;96816.31;4235693;28;5800;-68
2021/12/06 15:28:14;;;;;;;;;;;;;;;4.50;73.23;96806.66;4236281;27;5974;-68
2021/12/06 15:30:18;;;;;;;;;;;;;;;4.50;73.61;96811.91;4238237;27;5670;-68
2021/12/06 15:32:20;;;;;;;;;;;;;;;4.46;72.99;96805.34;4239769;27;5654;-68
2021/12/06 15:34:27;;;;;;;;;;;;;;;4.42;73.54;96808.41;4237855;28;5650;-67
2021/12/06 15:36:29;;;;;;;;;;;;;;;4.24;73.61;96805.84;4238979;28;5693;-67
2021/12/06 15:39:06;;;;;;;;;;;;;;;4.15;74.67;96797.13;4228517;27;5890;-67
2021/12/06 15:41:21;;;;;;;;;;;;;;;4.32;74.01;96792.84;4228580;27;5701;-67
2021/12/06 15:43:33;;;;;;;;;;;;;;;4.13;75.23;96793.03;4223969;27;5683;-70
2021/12/06 15:45:38;;;;;;;;;;;;;;;4.18;73.95;96786.34;4227535;28;5750;-70
2021/12/06 15:47:46;;;;;;;;;;;;;;;4.03;74.12;96777.41;4222979;28;5877;-70
2021/12/06 15:49:54;;;;;;;;;;;;;;;4.21;74.45;96786.06;4224197;28;6448;-68
2021/12/06 15:51:59;;;;;;;;;;;;;;;4.31;73.96;96786.78;4226424;28;6752;-69
2021/12/06 15:54:24;;;;;;;;;;;;;;;4.35;73.82;96774.19;4232791;28;5666;-71
2021/12/06 15:56:27;;;;;;;;;;;;;;;4.20;73.59;96773.94;4233375;27;5748;-69
2021/12/06 15:58:29;;;;;;;;;;;;;;;4.27;72.85;96759.25;4228590;28;5893;-66
2021/12/06 16:00:38;;;;;;;;;;;;;;;4.30;71.52;96753.72;4226258;27;5788;-67
2021/12/06 16:02:43;;;;;;;;;;;;;;;4.31;70.35;96755.38;4219001;28;5774;-66
2021/12/06 16:04:47;;;;;;;;;;;;;;;4.12;69.60;96758.19;4231909;27;5756;-66
2021/12/06 16:06:49;;;;;;;;;;;;;;;4.14;69.63;96764.09;4236035;27;5734;-66
2021/12/06 16:08:51;;;;;;;;;;;;;;;4.22;68.79;96776.41;4234435;27;5780;-66
2021/12/06 16:10:56;;;;;;;;;;;;;;;4.09;67.92;96784.66;4233443;27;5745;-66
2021/12/06 16:13:04;;;;;;;;;;;;;;;3.90;66.46;96788.28;4237728;27;5670;-66
2021/12/06 16:15:07;;;;;;;;;;;;;;;3.78;67.27;96766.78;4220737;27;5830;-67
2021/12/06 16:17:11;;;;;;;;;;;;;;;3.82;67.68;96759.44;4233363;27;6423;-66
2021/12/06 16:19:18;;;;;;;;;;;;;;;3.95;67.86;96754.63;4238607;27;5769;-67
2021/12/06 16:21:22;;;;;;;;;;;;;;;4.01;66.93;96754.03;4233164;28;5807;-66
2021/12/06 16:23:33;;;;;;;;;;;;;;;4.09;67.94;96761.13;4233962;27;5757;-67
2021/12/06 16:25:42;;;;;;;;;;;;;;;4.04;67.27;96764.19;4232763;27;5881;-67
2021/12/06 16:27:58;;;;;;;;;;;;;;;4.08;67.57;96754.25;4228212;28;5769;-67
2021/12/06 16:30:03;;;;;;;;;;;;;;;3.87;69.42;96762.44;4225810;27;5893;-67
2021/12/06 16:32:09;;;;;;;;;;;;;;;3.88;70.48;96761.47;4233771;27;5735;-67
2021/12/06 16:34:14;;;;;;;;;;;;;;;3.90;70.56;96751.66;4244063;27;5843;-67
2021/12/06 16:36:22;;;;;;;;;;;;;;;3.82;71.54;96746.34;4221722;27;5790;-67
2021/12/06 16:38:34;;;;;;;;;;;;;;;3.87;71.95;96743.31;4222675;27;5750;-66
2021/12/06 16:40:37;;;;;;;;;;;;;;;4.02;72.44;96750.44;4216743;28;5825;-67
2021/12/06 16:42:54;;;;;;;;;;;;;;;3.84;72.91;96754.06;4218370;28;5856;-67
2021/12/06 16:45:05;;;;;;;;;;;;;;;3.90;72.28;96756.88;4200902;28;5785;-67
2021/12/06 16:47:30;;;;;;;;;;;;;;;3.73;71.73;96750.69;4223921;28;6471;-67
2021/12/06 16:49:36;;;;;;;;;;;;;;;3.92;71.63;96754.13;4232004;28;5690;-66
2021/12/06 16:51:41;;;;;;;;;;;;;;;3.85;72.42;96748.69;4236725;28;5751;-66
2021/12/06 16:53:43;;;;;;;;;;;;;;;3.87;72.83;96745.91;4236325;28;5665;-67
2021/12/06 16:55:52;;;;;;;;;;;;;;;3.79;73.10;96746.66;4236529;27;5780;-67
2021/12/06 16:57:58;;;;;;;;;;;;;;;3.86;73.26;96737.25;4220151;28;5682;-67
2021/12/06 17:00:00;;;;;;;;;;;;;;;3.83;72.58;96752.41;4237583;27;5725;-67
2021/12/06 17:02:25;;;;;;;;;;;;;;;3.90;72.86;96756.06;4237081;27;5653;-66
2021/12/06 17:04:27;;;;;;;;;;;;;;;3.87;72.09;96754.59;4236472;28;5800;-66
2021/12/06 17:06:30;;;;;;;;;;;;;;;3.84;72.79;96749.63;4237665;27;5649;-67
2021/12/06 17:08:52;;;;;;;;;;;;;;;3.74;73.00;96738.47;4236258;28;5646;-67
2021/12/06 17:10:58;;;;;;;;;;;;;;;3.86;72.74;96737.25;4219134;28;5783;-66
2021/12/06 17:13:01;;;;;;;;;;;;;;;3.88;72.48;96739.72;4236722;28;5834;-67
2021/12/06 17:15:20;;;;;;;;;;;;;;;3.83;71.79;96750.63;4237503;27;5639;-66
2021/12/06 17:17:22;;;;;;;;;;;;;;;3.79;70.41;96744.88;4233091;27;8706;-66
2021/12/06 17:19:27;;;;;;;;;;;;;;;3.79;70.44;96737.03;4233741;28;5812;-66
2021/12/06 17:21:29;;;;;;;;;;;;;;;3.56;70.27;96732.44;4222644;28;5677;-66
2021/12/06 17:23:32;;;;;;;;;;;;;;;3.66;70.82;96733.19;4230923;28;5678;-66
2021/12/06 17:25:40;;;;;;;;;;;;;;;3.75;70.67;96727.03;4229447;28;5657;-67
2021/12/06 17:27:46;;;;;;;;;;;;;;;3.61;70.89;96730.19;4221162;28;5671;-67
2021/12/06 17:29:52;;;;;;;;;;;;;;;3.56;71.51;96732.44;4231277;28;5670;-66
2021/12/06 17:32:04;;;;;;;;;;;;;;;3.68;71.30;96731.22;4225755;22;5749;-67
2021/12/06 17:34:30;;;;;;;;;;;;;;;3.68;70.81;96721.59;4185501;28;5653;-67
2021/12/06 17:36:36;;;;;;;;;;;;;;;3.71;70.97;96707.38;4163765;28;5665;-67
2021/12/06 17:38:39;;;;;;;;;;;;;;;3.80;71.39;96706.47;4179509;28;5657;-68
2021/12/06 17:40:44;;;;;;;;;;;;;;;3.64;71.17;96714.22;4169091;28;5652;-67